WSSS/SIN METAR and TAF weather

Enter ICAO airport designator
Station Type Date Time Source
WSSS METAR 2021/01/17 19:00 UTC NOAA

WSSS 171900Z 36013KT 9999 FEW018 SCT040 BKN300 25/21 Q1010 NOSIG


Station Type Date Time Source
WSSS Decoded METAR 2021/01/17 19:00 UTC NOAA

Singapore / Changi Airport, Singapore (WSSS) 01-22N 103-59E 16M
Jan 17, 2021 - 02:00 PM EST / 2021.01.17 1900 UTC
Wind: from the N (360 degrees) at 15 MPH (13 KT):0
Visibility: greater than 7 mile(s):0
Sky conditions: mostly cloudy
Temperature: 77 F (25 C)
Dew Point: 69 F (21 C)
Relative Humidity: 78%
Pressure (altimeter): 29.83 in. Hg (1010 hPa)
ob: WSSS 171900Z 36013KT 9999 FEW018 SCT040 BKN300 25/21 Q1010 NOSIG
cycle: 19

Station Type Date Time Source
WSSS TAF 2021/01/17 18:13 UTC NOAA

TAF WSSS 171700Z 1718/1900 01013KT 9999 SCT015
TEMPO 1804/1810 01015G25KT

Example: see airport list